createdAt,value
2023-01-17T00:02:20.507Z,14.02
2023-01-17T00:05:06.476Z,10.70
2023-01-17T00:07:52.749Z,10.13
2023-01-17T00:10:23.892Z,11.65
2023-01-17T00:12:52.750Z,12.52
2023-01-17T00:15:23.066Z,9.90
2023-01-17T00:17:50.883Z,12.52
2023-01-17T00:20:40.599Z,11.50
2023-01-17T00:23:31.130Z,11.98
2023-01-17T00:26:04.994Z,11.38
2023-01-17T00:28:35.449Z,11.20
2023-01-17T00:31:04.316Z,9.52
2023-01-17T00:33:32.042Z,9.18
2023-01-17T00:36:00.847Z,10.38
2023-01-17T00:38:30.660Z,10.18
2023-01-17T00:41:09.139Z,6.95
2023-01-17T00:43:55.761Z,8.07
2023-01-17T00:46:41.916Z,7.85
2023-01-17T00:49:28.107Z,6.40
2023-01-17T00:52:14.284Z,6.55
2023-01-17T00:55:00.598Z,4.60
2023-01-17T00:57:46.759Z,5.47
2023-01-17T01:00:33.459Z,4.75
2023-01-17T01:03:19.566Z,4.25
2023-01-17T01:06:05.763Z,6.75
2023-01-17T01:08:52.017Z,7.25
2023-01-17T01:11:39.858Z,5.40
2023-01-17T01:14:28.804Z,3.75
2023-01-17T01:17:14.865Z,4.95
2023-01-17T01:20:01.426Z,6.53
2023-01-17T01:22:47.898Z,3.95
2023-01-17T01:25:34.103Z,4.30
2023-01-17T01:28:26.238Z,5.50
2023-01-17T01:31:12.350Z,5.82
2023-01-17T01:33:40.064Z,3.40
2023-01-17T01:36:09.124Z,5.60
2023-01-17T01:38:36.994Z,4.68
2023-01-17T01:41:05.164Z,4.20
2023-01-17T01:43:53.421Z,4.18
2023-01-17T01:46:41.409Z,5.30
2023-01-17T01:49:21.248Z,6.40
2023-01-17T01:51:58.642Z,2.83
2023-01-17T01:54:30.847Z,3.53
2023-01-17T01:57:02.713Z,3.13
2023-01-17T01:59:31.148Z,3.63
2023-01-17T02:01:58.661Z,3.70
2023-01-17T02:04:28.472Z,3.90
2023-01-17T02:07:02.726Z,3.00
2023-01-17T02:09:30.229Z,3.80
2023-01-17T02:11:57.859Z,3.15
2023-01-17T02:14:25.363Z,5.53
2023-01-17T02:17:03.948Z,3.47
2023-01-17T02:20:00.489Z,4.03
2023-01-17T02:22:57.713Z,2.65
2023-01-17T02:25:37.281Z,4.30
2023-01-17T02:28:13.777Z,4.32
2023-01-17T02:30:52.662Z,2.85
2023-01-17T02:33:33.587Z,3.05
2023-01-17T02:36:22.678Z,5.10
2023-01-17T02:39:03.148Z,3.33
2023-01-17T02:41:43.849Z,4.63
2023-01-17T02:44:15.843Z,4.65
2023-01-17T02:46:53.046Z,3.72
2023-01-17T02:49:25.249Z,3.58
2023-01-17T02:52:11.951Z,4.90
2023-01-17T02:55:01.303Z,3.75
2023-01-17T02:57:47.146Z,4.50
2023-01-17T03:00:48.834Z,4.18
2023-01-17T03:03:27.769Z,2.90
2023-01-17T03:05:58.493Z,2.15
2023-01-17T03:08:27.373Z,3.33
2023-01-17T03:10:55.423Z,3.00
2023-01-17T03:13:23.049Z,2.65
2023-01-17T03:15:50.622Z,2.53
2023-01-17T03:18:18.700Z,2.17
2023-01-17T03:20:46.248Z,2.28
2023-01-17T03:23:13.881Z,1.65
2023-01-17T03:25:41.341Z,1.45
2023-01-17T03:28:08.830Z,1.80
2023-01-17T03:30:36.356Z,1.33
2023-01-17T03:33:03.938Z,1.15
2023-01-17T03:35:31.378Z,1.67
2023-01-17T03:37:58.909Z,1.92
2023-01-17T03:40:26.413Z,1.23
2023-01-17T03:42:53.929Z,2.63
2023-01-17T03:45:21.355Z,1.50
2023-01-17T03:47:48.842Z,0.82
2023-01-17T03:50:16.353Z,0.77
2023-01-17T03:52:43.928Z,0.75
2023-01-17T03:55:11.411Z,0.82
2023-01-17T03:57:39.202Z,0.98
2023-01-17T04:00:07.378Z,1.20
2023-01-17T04:02:35.382Z,0.85
2023-01-17T04:05:03.127Z,0.43
2023-01-17T04:07:30.632Z,0.40
2023-01-17T04:09:58.154Z,0.30
2023-01-17T04:12:25.689Z,0.50
2023-01-17T04:14:53.204Z,1.58
2023-01-17T04:17:20.965Z,0.45
2023-01-17T04:19:48.554Z,0.55
2023-01-17T04:22:16.070Z,0.70
2023-01-17T04:24:43.564Z,1.15
2023-01-17T04:27:14.874Z,1.15
2023-01-17T04:29:42.401Z,0.40
2023-01-17T04:32:10.126Z,0.20
2023-01-17T04:34:37.688Z,1.13
2023-01-17T04:37:05.125Z,0.60
2023-01-17T04:39:32.668Z,0.43
2023-01-17T04:42:00.265Z,0.40
2023-01-17T04:44:27.843Z,0.32
2023-01-17T04:46:55.343Z,1.13
2023-01-17T04:49:22.898Z,0.55
2023-01-17T04:51:50.469Z,0.60
2023-01-17T04:54:18.112Z,1.02
2023-01-17T04:56:45.596Z,1.08
2023-01-17T04:59:13.076Z,0.32
2023-01-17T05:01:40.645Z,0.57
2023-01-17T05:04:08.461Z,1.00
2023-01-17T05:06:35.921Z,1.33
2023-01-17T05:09:03.704Z,1.35
2023-01-17T05:11:31.152Z,0.52
2023-01-17T05:13:58.832Z,1.00
2023-01-17T05:16:26.408Z,0.63
2023-01-17T05:18:54.575Z,0.50
2023-01-17T05:21:22.552Z,0.63
2023-01-17T05:23:50.841Z,1.27
2023-01-17T05:26:18.457Z,1.23
2023-01-17T05:28:46.085Z,1.88
2023-01-17T05:31:13.665Z,2.03
2023-01-17T05:33:41.305Z,0.82
2023-01-17T05:36:09.347Z,1.00
2023-01-17T05:38:36.879Z,1.15
2023-01-17T05:41:05.324Z,0.40
2023-01-17T05:43:32.993Z,0.60
2023-01-17T05:46:00.874Z,3.35
2023-01-17T05:48:28.589Z,2.92
2023-01-17T05:50:56.167Z,0.50
2023-01-17T05:53:23.847Z,0.98
2023-01-17T05:55:51.453Z,0.73
2023-01-17T05:58:21.723Z,0.45
2023-01-17T06:00:49.813Z,0.50
2023-01-17T06:03:17.512Z,1.85
2023-01-17T06:05:45.255Z,0.95
2023-01-17T06:08:12.853Z,1.42
2023-01-17T06:10:40.459Z,1.20
2023-01-17T06:13:12.580Z,3.55
2023-01-17T06:15:41.519Z,1.15
2023-01-17T06:18:11.324Z,0.80
2023-01-17T06:20:39.843Z,0.55
2023-01-17T06:23:10.969Z,1.75
2023-01-17T06:25:41.099Z,1.70
2023-01-17T06:28:08.813Z,3.55
2023-01-17T06:30:36.956Z,2.85
2023-01-17T06:33:05.553Z,0.75
2023-01-17T06:35:33.757Z,3.05
2023-01-17T06:38:01.403Z,0.65
2023-01-17T06:40:29.708Z,0.90
2023-01-17T06:43:02.157Z,0.60
2023-01-17T06:45:31.675Z,2.13
2023-01-17T06:48:01.183Z,0.77
2023-01-17T06:50:28.748Z,2.22
2023-01-17T06:53:02.236Z,1.40
2023-01-17T06:55:33.902Z,1.02
2023-01-17T06:58:03.159Z,1.25
2023-01-17T07:00:35.320Z,0.80
2023-01-17T07:03:03.060Z,1.85
2023-01-17T07:05:30.607Z,1.15
2023-01-17T07:07:58.411Z,0.65
2023-01-17T07:10:25.984Z,0.95
2023-01-17T07:12:59.083Z,1.60
2023-01-17T07:15:26.783Z,1.35
2023-01-17T07:17:54.352Z,1.45
2023-01-17T07:20:21.992Z,1.98
2023-01-17T07:22:49.453Z,2.28
2023-01-17T07:25:17.274Z,1.95
2023-01-17T07:27:44.834Z,1.00
2023-01-17T07:30:13.067Z,1.80
2023-01-17T07:32:40.600Z,0.90
2023-01-17T07:35:08.523Z,1.05
2023-01-17T07:37:36.107Z,0.88
2023-01-17T07:40:04.616Z,0.80
2023-01-17T07:42:32.113Z,1.38
2023-01-17T07:45:00.852Z,1.02
2023-01-17T07:47:28.395Z,1.70
2023-01-17T07:49:56.025Z,1.75
2023-01-17T07:52:23.933Z,2.63
2023-01-17T07:54:51.528Z,3.00
2023-01-17T07:57:19.005Z,2.30
2023-01-17T07:59:46.488Z,1.25
2023-01-17T08:02:19.235Z,1.08
2023-01-17T08:04:47.673Z,1.47
2023-01-17T08:07:15.838Z,1.15
2023-01-17T08:09:44.400Z,1.65
2023-01-17T08:12:11.971Z,1.83
2023-01-17T08:14:39.519Z,1.70
2023-01-17T08:17:15.272Z,0.88
2023-01-17T08:19:43.490Z,2.47
2023-01-17T08:22:12.368Z,1.25
2023-01-17T08:24:40.202Z,1.08
2023-01-17T08:27:09.135Z,0.95
2023-01-17T08:29:37.285Z,0.70
2023-01-17T08:32:04.943Z,1.23
2023-01-17T08:34:33.939Z,1.10
2023-01-17T08:37:01.640Z,2.05
2023-01-17T08:39:29.162Z,1.50
2023-01-17T08:41:57.604Z,2.63
2023-01-17T08:44:25.226Z,1.83
2023-01-17T08:46:52.856Z,0.85
2023-01-17T08:49:20.673Z,0.68
2023-01-17T08:51:48.255Z,3.00
2023-01-17T08:54:15.831Z,1.45
2023-01-17T08:56:43.313Z,2.50
2023-01-17T08:59:12.057Z,2.88
2023-01-17T09:01:46.226Z,3.50
2023-01-17T09:04:14.954Z,2.00
2023-01-17T09:06:45.538Z,2.15
2023-01-17T09:09:13.959Z,1.67
2023-01-17T09:11:41.562Z,2.17
2023-01-17T09:14:11.429Z,0.93
2023-01-17T09:16:39.069Z,1.10
2023-01-17T09:19:06.558Z,3.08
2023-01-17T09:21:34.105Z,1.90
2023-01-17T09:24:01.606Z,2.15
2023-01-17T09:26:30.628Z,1.13
2023-01-17T09:28:58.863Z,1.10
2023-01-17T09:31:30.181Z,0.82
2023-01-17T09:33:58.903Z,2.25
2023-01-17T09:36:29.318Z,1.13
2023-01-17T09:38:58.426Z,1.70
2023-01-17T09:41:33.621Z,1.63
2023-01-17T09:44:27.977Z,2.08
2023-01-17T09:47:07.768Z,1.77
2023-01-17T09:49:43.132Z,2.58
2023-01-17T09:52:23.568Z,2.42
2023-01-17T09:54:51.696Z,1.48
2023-01-17T09:57:47.173Z,1.83
2023-01-17T10:00:38.789Z,2.30
2023-01-17T10:03:31.187Z,1.45
2023-01-17T10:06:30.772Z,3.78
2023-01-17T10:09:19.690Z,1.08
2023-01-17T10:12:00.666Z,1.42
2023-01-17T10:15:07.330Z,1.60
2023-01-17T10:17:50.702Z,1.45
2023-01-17T10:20:51.811Z,3.60
2023-01-17T10:23:38.194Z,2.35
2023-01-17T10:26:17.546Z,1.00
2023-01-17T10:28:48.980Z,2.53
2023-01-17T10:31:26.852Z,2.72
2023-01-17T10:33:55.824Z,1.00
2023-01-17T10:36:26.366Z,2.80
2023-01-17T10:38:57.163Z,1.83
2023-01-17T10:41:29.718Z,1.95
2023-01-17T10:44:17.563Z,0.60
2023-01-17T10:50:58.370Z,1.38
2023-01-17T10:54:01.926Z,1.45
2023-01-17T10:56:30.457Z,1.00
2023-01-17T10:59:24.559Z,2.55
2023-01-17T11:01:52.280Z,2.75
2023-01-17T11:04:32.462Z,3.20
2023-01-17T11:07:17.811Z,0.88
2023-01-17T11:09:50.659Z,1.75
2023-01-17T11:12:44.227Z,1.08
2023-01-17T11:15:11.767Z,0.97
2023-01-17T11:17:48.978Z,0.70
2023-01-17T11:20:38.392Z,2.58
2023-01-17T11:23:09.021Z,2.08
2023-01-17T11:25:37.469Z,1.20
2023-01-17T11:28:04.861Z,1.65
2023-01-17T11:30:32.682Z,1.73
2023-01-17T11:33:04.338Z,1.80
2023-01-17T11:35:34.519Z,2.45
2023-01-17T11:38:19.802Z,3.22
2023-01-17T11:40:50.054Z,2.85
2023-01-17T11:43:24.348Z,1.75
2023-01-17T11:46:18.078Z,0.93
2023-01-17T11:48:56.009Z,2.55
2023-01-17T11:51:28.564Z,1.23
2023-01-17T11:54:08.246Z,1.38
2023-01-17T11:56:37.130Z,1.80
2023-01-17T11:59:18.854Z,2.22
2023-01-17T12:01:51.132Z,1.45
2023-01-17T12:04:24.370Z,2.03
2023-01-17T12:07:16.743Z,1.08
2023-01-17T12:10:19.840Z,2.00
2023-01-17T12:13:08.925Z,3.80
2023-01-17T12:15:42.228Z,1.75
2023-01-17T12:18:47.252Z,2.03
2023-01-17T12:21:16.977Z,3.15
2023-01-17T12:23:50.518Z,2.10
2023-01-17T12:26:27.715Z,2.53
2023-01-17T12:29:16.217Z,2.83
2023-01-17T12:31:58.833Z,2.58
2023-01-17T12:34:52.135Z,1.65
2023-01-17T12:37:37.171Z,2.72
2023-01-17T12:40:17.151Z,2.03
2023-01-17T12:42:55.828Z,0.88
2023-01-17T12:45:34.606Z,1.33
2023-01-17T12:48:17.183Z,1.90
2023-01-17T12:51:09.477Z,2.53
2023-01-17T12:53:58.667Z,2.35
2023-01-17T12:56:47.646Z,2.45
2023-01-17T12:59:19.942Z,0.93
2023-01-17T13:01:57.836Z,2.42
2023-01-17T13:04:58.052Z,1.50
2023-01-17T13:07:39.545Z,1.23
2023-01-17T13:10:15.792Z,3.60
2023-01-17T13:12:43.894Z,1.63
2023-01-17T13:15:23.038Z,1.30
2023-01-17T13:18:09.674Z,1.17
2023-01-17T13:20:56.254Z,0.88
2023-01-17T13:23:36.347Z,1.75
2023-01-17T13:26:14.392Z,1.70
2023-01-17T13:28:58.076Z,2.15
2023-01-17T13:31:25.647Z,2.10
2023-01-17T13:33:56.156Z,2.40
2023-01-17T13:36:45.872Z,0.80
2023-01-17T13:40:03.560Z,1.80
2023-01-17T13:42:49.490Z,3.08
2023-01-17T13:45:23.355Z,1.60
2023-01-17T13:47:51.031Z,0.98
2023-01-17T13:50:58.600Z,1.52
2023-01-17T13:53:29.168Z,2.25
2023-01-17T13:56:28.767Z,2.38
2023-01-17T13:59:02.264Z,1.17
2023-01-17T14:01:34.877Z,2.10
2023-01-17T14:04:05.067Z,5.03
2023-01-17T14:06:38.678Z,2.53
2023-01-17T14:09:18.468Z,3.53
2023-01-17T14:11:56.526Z,3.63
2023-01-17T14:14:42.868Z,1.23
2023-01-17T14:17:16.391Z,3.80
2023-01-17T14:19:48.832Z,3.30
2023-01-17T14:22:19.158Z,2.08
2023-01-17T14:25:24.793Z,2.05
2023-01-17T14:28:06.444Z,5.95
2023-01-17T14:30:33.897Z,2.83
2023-01-17T14:33:01.553Z,4.75
2023-01-17T14:35:41.405Z,2.63
2023-01-17T14:38:23.061Z,3.95
2023-01-17T14:41:20.529Z,4.28
2023-01-17T14:43:49.928Z,3.22
2023-01-17T14:46:33.099Z,6.32
2023-01-17T14:49:06.124Z,8.97
2023-01-17T14:51:35.305Z,9.20
2023-01-17T14:54:15.459Z,13.35
2023-01-17T14:56:43.032Z,9.23
2023-01-17T14:59:14.923Z,8.35
2023-01-17T15:01:48.065Z,8.02
2023-01-17T15:04:30.629Z,6.45
2023-01-17T15:07:00.073Z,6.90
2023-01-17T15:09:32.871Z,1.85
2023-01-17T15:12:02.735Z,2.10
2023-01-17T15:14:34.999Z,2.45
2023-01-17T15:17:19.579Z,1.60
2023-01-17T15:19:55.694Z,1.90
2023-01-17T15:22:25.936Z,3.40
2023-01-17T15:24:54.585Z,2.10
2023-01-17T15:27:22.210Z,3.55
2023-01-17T15:29:50.506Z,4.55
2023-01-17T15:32:23.877Z,4.68
2023-01-17T15:34:52.646Z,2.03
2023-01-17T15:37:36.757Z,4.35
2023-01-17T15:40:25.148Z,5.85
2023-01-17T15:42:56.798Z,4.03
2023-01-17T15:45:29.137Z,2.83
2023-01-17T15:47:59.252Z,3.63
2023-01-17T15:50:32.491Z,7.65
2023-01-17T15:53:02.956Z,4.97
2023-01-17T15:55:35.693Z,4.20
2023-01-17T15:58:04.986Z,2.83
2023-01-17T16:00:39.744Z,2.70
2023-01-17T16:03:27.569Z,5.05
2023-01-17T16:05:58.000Z,5.80
2023-01-17T16:08:27.519Z,3.03
2023-01-17T16:10:58.300Z,3.25
2023-01-17T16:13:25.870Z,3.00
2023-01-17T16:15:53.485Z,2.50
2023-01-17T16:18:24.365Z,7.40
2023-01-17T16:20:55.114Z,2.47
2023-01-17T16:23:23.549Z,2.28
2023-01-17T16:25:51.041Z,3.17
2023-01-17T16:28:18.493Z,4.20
2023-01-17T16:30:46.324Z,3.75
2023-01-17T16:33:13.964Z,3.58
2023-01-17T16:35:43.138Z,2.42
2023-01-17T16:38:14.185Z,3.08
2023-01-17T16:40:44.638Z,3.60
2023-01-17T16:43:14.539Z,5.13
2023-01-17T16:45:50.581Z,4.30
2023-01-17T16:48:19.452Z,3.13
2023-01-17T16:50:51.141Z,3.72
2023-01-17T16:53:28.484Z,8.95
2023-01-17T16:55:59.259Z,5.57
2023-01-17T16:58:26.808Z,3.40
2023-01-17T17:00:55.776Z,3.28
2023-01-17T17:03:23.476Z,3.80
2023-01-17T17:06:00.215Z,3.22
2023-01-17T17:08:29.651Z,2.72
2023-01-17T17:11:20.550Z,3.60
2023-01-17T17:13:49.999Z,3.33
2023-01-17T17:16:29.898Z,4.10
2023-01-17T17:19:05.770Z,2.28
2023-01-17T17:21:35.329Z,4.20
2023-01-17T17:24:03.075Z,2.45
2023-01-17T17:26:34.550Z,3.42
2023-01-17T17:29:03.823Z,3.58
2023-01-17T17:31:31.505Z,4.72
2023-01-17T17:34:01.369Z,2.55
2023-01-17T17:36:29.287Z,5.53
2023-01-17T17:38:57.994Z,5.95
2023-01-17T17:41:28.042Z,5.43
2023-01-17T17:43:56.185Z,3.35
2023-01-17T17:46:25.572Z,6.50
2023-01-17T17:48:53.670Z,4.90
2023-01-17T17:51:32.845Z,9.10
2023-01-17T17:54:03.113Z,6.50
2023-01-17T17:56:32.225Z,6.78
2023-01-17T17:59:01.142Z,6.75
2023-01-17T18:01:29.733Z,2.60
2023-01-17T18:04:02.050Z,3.72
2023-01-17T18:06:29.807Z,3.13
2023-01-17T18:08:57.338Z,3.50
2023-01-17T18:11:26.828Z,2.50
2023-01-17T18:13:56.416Z,5.75
2023-01-17T18:16:32.920Z,3.85
2023-01-17T18:19:00.528Z,3.60
2023-01-17T18:21:32.478Z,4.55
2023-01-17T18:24:05.857Z,5.20
2023-01-17T18:26:45.231Z,5.72
2023-01-17T18:29:15.898Z,6.57
2023-01-17T18:31:44.875Z,7.35
2023-01-17T18:34:15.687Z,6.35
2023-01-17T18:36:44.035Z,5.47
2023-01-17T18:39:17.213Z,9.15
2023-01-17T18:41:44.777Z,11.57
2023-01-17T18:44:12.252Z,4.32
2023-01-17T18:46:40.503Z,6.28
2023-01-17T18:49:10.011Z,5.00
2023-01-17T18:51:37.529Z,5.60
2023-01-17T18:54:06.933Z,5.75
2023-01-17T18:56:35.563Z,4.72
2023-01-17T18:59:05.822Z,6.07
2023-01-17T19:01:36.130Z,5.70
2023-01-17T19:04:05.292Z,6.32
2023-01-17T19:06:35.477Z,10.38
2023-01-17T19:09:03.625Z,8.35
2023-01-17T19:11:31.206Z,7.53
2023-01-17T19:13:58.717Z,6.43
2023-01-17T19:16:32.682Z,8.98
2023-01-17T19:19:07.267Z,11.18
2023-01-17T19:21:34.821Z,5.90
2023-01-17T19:24:02.343Z,8.48
2023-01-17T19:26:30.189Z,8.10
2023-01-17T19:29:03.911Z,5.55
2023-01-17T19:31:34.518Z,5.55
2023-01-17T19:34:02.266Z,6.03
2023-01-17T19:36:34.516Z,6.22
2023-01-17T19:39:05.590Z,5.80
2023-01-17T19:41:40.927Z,6.00
2023-01-17T19:44:10.469Z,7.20
2023-01-17T19:46:38.497Z,5.78
2023-01-17T19:49:08.777Z,4.55
2023-01-17T19:51:36.788Z,5.95
2023-01-17T19:54:06.597Z,6.00
2023-01-17T19:56:34.150Z,6.15
2023-01-17T19:59:02.314Z,6.75
2023-01-17T20:01:32.051Z,6.32
2023-01-17T20:04:01.479Z,5.15
2023-01-17T20:06:32.568Z,6.28
2023-01-17T20:09:00.211Z,5.80
2023-01-17T20:11:29.044Z,4.93
2023-01-17T20:13:58.570Z,4.95
2023-01-17T20:16:28.580Z,3.50
2023-01-17T20:18:57.560Z,4.25
2023-01-17T20:21:27.550Z,4.78
2023-01-17T20:23:56.856Z,7.05
2023-01-17T20:26:31.273Z,7.78
2023-01-17T20:28:58.805Z,5.93
2023-01-17T20:31:28.609Z,8.52
2023-01-17T20:33:56.400Z,4.38
2023-01-17T20:36:29.041Z,9.18
2023-01-17T20:38:57.454Z,11.95
2023-01-17T20:41:33.591Z,11.20
2023-01-17T20:44:03.029Z,13.20
2023-01-17T20:46:35.536Z,27.42
2023-01-17T20:49:05.587Z,18.58
2023-01-17T20:51:38.565Z,48.03
2023-01-17T20:54:07.171Z,80.53
2023-01-17T20:56:34.896Z,17.27
2023-01-17T20:59:07.756Z,21.63
2023-01-17T21:01:38.990Z,32.45
2023-01-17T21:04:10.240Z,114.70
2023-01-17T21:06:40.165Z,54.20
2023-01-17T21:09:10.534Z,18.73
2023-01-17T21:11:38.637Z,20.92
2023-01-17T21:14:06.652Z,13.02
2023-01-17T21:16:35.138Z,9.93
2023-01-17T21:19:03.367Z,7.85
2023-01-17T21:21:30.972Z,7.82
2023-01-17T21:23:59.579Z,5.45
2023-01-17T21:26:28.730Z,6.40
2023-01-17T21:28:56.691Z,6.20
2023-01-17T21:31:30.294Z,12.63
2023-01-17T21:36:29.368Z,12.77
2023-01-17T21:38:58.418Z,6.93
2023-01-17T21:41:28.845Z,6.47
2023-01-17T21:43:58.239Z,7.13
2023-01-17T21:46:27.127Z,7.15
2023-01-17T21:48:56.742Z,5.88
2023-01-17T21:51:24.910Z,6.47
2023-01-17T21:53:52.339Z,9.10
2023-01-17T21:56:38.674Z,7.53
2023-01-17T21:59:06.262Z,8.45
2023-01-17T22:01:33.843Z,8.75
2023-01-17T22:04:03.100Z,7.63
2023-01-17T22:06:33.079Z,8.68
2023-01-17T22:09:00.582Z,7.32
2023-01-17T22:11:30.496Z,6.88
2023-01-17T22:13:59.295Z,7.70
2023-01-17T22:16:26.978Z,5.32
2023-01-17T22:18:54.547Z,6.05
2023-01-17T22:21:24.820Z,6.72
2023-01-17T22:23:55.098Z,9.23
2023-01-17T22:26:26.048Z,6.63
2023-01-17T22:28:54.195Z,5.43
2023-01-17T22:31:23.813Z,7.13
2023-01-17T22:34:00.749Z,6.97
2023-01-17T22:36:34.748Z,8.27
2023-01-17T22:39:02.628Z,6.97
2023-01-17T22:41:31.296Z,7.03
2023-01-17T22:44:00.058Z,8.23
2023-01-17T22:46:30.590Z,4.25
2023-01-17T22:48:59.868Z,6.20
2023-01-17T22:51:28.676Z,7.93
2023-01-17T22:53:58.455Z,8.23
2023-01-17T22:56:31.773Z,6.57
2023-01-17T22:59:03.445Z,8.02
2023-01-17T23:01:32.995Z,8.20
2023-01-17T23:04:03.656Z,7.57
2023-01-17T23:06:34.337Z,9.98
2023-01-17T23:09:11.290Z,8.07
2023-01-17T23:11:47.454Z,9.10
2023-01-17T23:14:25.470Z,8.98
2023-01-17T23:17:17.636Z,9.25
2023-01-17T23:19:51.134Z,8.32
2023-01-17T23:22:24.597Z,9.15
2023-01-17T23:25:05.566Z,8.15
2023-01-17T23:27:57.091Z,8.40
2023-01-17T23:30:34.832Z,9.13
2023-01-17T23:33:08.183Z,9.98
2023-01-17T23:35:41.758Z,7.72
2023-01-17T23:38:26.089Z,9.32
2023-01-17T23:43:39.423Z,6.07
2023-01-17T23:46:12.483Z,10.55
2023-01-17T23:48:39.987Z,8.50
2023-01-17T23:51:08.333Z,8.38
2023-01-17T23:53:37.653Z,10.00
2023-01-17T23:56:14.898Z,7.25
2023-01-17T23:58:42.377Z,6.90
